Time;durP1;ratioP1;P1;durP2;ratioP2;P2;SDS_P1;SDS_P2;PMS_P1;PMS_P2;Temp;Humidity;BMP_temperature;BMP_pressure;BME280_temperature;BME280_humidity;BME280_pressure;Samples;Min_cycle;Max_cycle;Signal;HPM_P1;HPM_P2
2023/09/01 00:00:15;;;;;;;9.43;4.50;;;12.00;99.90;;;;;;4994329;28;20169;-69
2023/09/01 00:02:40;;;;;;;8.80;4.30;;;12.10;99.90;;;;;;4994389;28;20260;-67
2023/09/01 00:05:07;;;;;;;7.90;4.20;;;11.90;99.90;;;;;;4994142;28;20288;-68
2023/09/01 00:07:33;;;;;;;8.30;4.30;;;12.00;99.90;;;;;;4993618;28;20184;-69
2023/09/01 00:09:59;;;;;;;13.17;5.10;;;12.00;99.90;;;;;;4994284;28;20180;-68
2023/09/01 00:12:25;;;;;;;14.90;5.33;;;12.00;99.90;;;;;;4994219;28;20173;-69
2023/09/01 00:14:51;;;;;;;7.03;4.10;;;12.10;99.90;;;;;;4992968;28;20228;-68
2023/09/01 00:17:17;;;;;;;11.63;4.87;;;12.10;99.90;;;;;;4993468;28;20196;-68
2023/09/01 00:19:42;;;;;;;10.43;4.57;;;12.10;99.90;;;;;;4993929;28;20710;-69
2023/09/01 00:22:08;;;;;;;9.43;4.37;;;12.10;99.90;;;;;;4999279;28;20200;-69
2023/09/01 00:24:34;;;;;;;14.20;4.53;;;12.10;99.90;;;;;;5013545;28;20193;-69
2023/09/01 00:27:00;;;;;;;9.07;4.77;;;12.10;99.90;;;;;;5012932;28;20185;-68
2023/09/01 00:29:26;;;;;;;10.87;4.60;;;12.10;99.90;;;;;;5013459;28;20227;-68
2023/09/01 00:31:52;;;;;;;9.23;4.77;;;12.10;99.90;;;;;;5013480;28;20518;-68
2023/09/01 00:34:18;;;;;;;13.47;5.20;;;12.10;99.90;;;;;;5013341;28;20220;-68
2023/09/01 00:36:44;;;;;;;12.73;5.40;;;12.10;99.90;;;;;;5012924;28;20615;-68
2023/09/01 00:39:09;;;;;;;9.60;4.80;;;12.10;99.90;;;;;;5013192;28;20181;-68
2023/09/01 00:41:35;;;;;;;16.17;5.33;;;12.10;99.90;;;;;;5013249;28;20172;-68
2023/09/01 00:44:03;;;;;;;15.40;5.50;;;12.20;99.90;;;;;;5012512;28;20282;-69
2023/09/01 00:46:30;;;;;;;10.23;4.97;;;12.10;99.90;;;;;;5011809;28;20650;-68
2023/09/01 00:48:57;;;;;;;10.30;4.73;;;12.20;99.90;;;;;;5012480;28;20185;-69
2023/09/01 00:51:24;;;;;;;10.60;5.37;;;12.20;99.90;;;;;;5013112;28;20180;-69
2023/09/01 00:53:51;;;;;;;8.63;4.57;;;12.20;99.90;;;;;;5013066;28;20637;-69
2023/09/01 00:56:18;;;;;;;9.77;4.53;;;12.20;99.90;;;;;;5012948;28;20201;-69
2023/09/01 00:58:44;;;;;;;9.87;4.20;;;12.20;99.90;;;;;;5012182;28;20177;-68
2023/09/01 01:01:09;;;;;;;7.43;4.30;;;12.20;99.90;;;;;;5012843;28;20176;-68
2023/09/01 01:03:35;;;;;;;8.07;3.90;;;12.20;99.90;;;;;;5012746;28;20204;-67
2023/09/01 01:06:01;;;;;;;10.07;3.90;;;12.10;99.90;;;;;;5012877;28;20181;-67
2023/09/01 01:08:45;;;;;;;8.20;4.20;;;12.00;99.90;;;;;;5011181;28;20173;-67
2023/09/01 01:11:29;;;;;;;12.07;3.70;;;12.10;99.90;;;;;;5012652;28;20197;-67
2023/09/01 01:13:59;;;;;;;8.80;4.43;;;12.10;99.90;;;;;;5012425;28;20208;-67
2023/09/01 01:16:26;;;;;;;11.13;4.37;;;12.10;99.90;;;;;;5012535;28;20247;-67
2023/09/01 01:18:54;;;;;;;9.63;4.07;;;12.10;99.90;;;;;;5011588;28;20197;-67
2023/09/01 01:21:26;;;;;;;8.07;3.87;;;12.10;99.90;;;;;;5012641;28;20173;-67
2023/09/01 01:23:53;;;;;;;14.03;4.27;;;12.10;99.90;;;;;;5012478;28;20235;-67
2023/09/01 01:26:19;;;;;;;10.47;3.67;;;12.10;99.90;;;;;;5012472;28;20196;-67
2023/09/01 01:28:44;;;;;;;13.87;4.50;;;12.10;99.90;;;;;;5011727;28;20263;-67
2023/09/01 01:31:10;;;;;;;7.50;4.17;;;12.20;99.90;;;;;;5012340;28;20579;-67
2023/09/01 01:33:45;;;;;;;9.07;4.50;;;12.20;99.90;;;;;;5012275;28;20779;-67
2023/09/01 01:36:14;;;;;;;9.63;4.30;;;12.20;99.90;;;;;;5012293;28;20216;-67
2023/09/01 01:38:44;;;;;;;8.90;3.90;;;12.20;99.90;;;;;;5011522;28;20244;-67
2023/09/01 01:41:14;;;;;;;11.10;4.20;;;12.20;99.90;;;;;;5012386;28;20185;-67
2023/09/01 01:43:42;;;;;;;8.37;4.23;;;12.20;99.90;;;;;;5010773;28;20666;-67
2023/09/01 01:46:08;;;;;;;9.00;3.97;;;12.30;99.90;;;;;;5012064;28;20647;-67
2023/09/01 01:48:37;;;;;;;9.77;3.93;;;12.30;99.90;;;;;;5011290;28;20230;-67
2023/09/01 01:51:05;;;;;;;9.03;4.00;;;12.30;99.90;;;;;;5012072;28;20177;-67
2023/09/01 01:53:35;;;;;;;8.23;3.53;;;12.30;99.90;;;;;;5011702;28;20196;-67
2023/09/01 01:56:03;;;;;;;8.80;3.93;;;12.30;99.90;;;;;;5011859;28;20220;-67
2023/09/01 01:58:29;;;;;;;10.37;4.00;;;12.30;99.90;;;;;;5011120;28;20542;-66
2023/09/01 02:00:55;;;;;;;8.23;4.03;;;12.30;99.90;;;;;;5011707;28;20198;-66
2023/09/01 02:03:20;;;;;;;8.30;4.13;;;12.30;99.90;;;;;;5011779;28;20271;-67
2023/09/01 02:05:46;;;;;;;7.60;3.70;;;12.30;99.90;;;;;;5011731;28;20708;-66
2023/09/01 02:08:11;;;;;;;10.77;4.60;;;12.30;99.90;;;;;;5010021;28;20191;-66
2023/09/01 02:10:37;;;;;;;7.70;3.77;;;12.30;99.90;;;;;;5011552;28;20164;-67
2023/09/01 02:13:04;;;;;;;16.10;3.73;;;12.30;99.90;;;;;;5011484;28;20188;-67
2023/09/01 02:15:32;;;;;;;8.37;3.53;;;12.30;99.90;;;;;;5011745;28;20175;-66
2023/09/01 02:17:58;;;;;;;5.83;3.80;;;12.30;99.90;;;;;;5010904;28;20195;-67
2023/09/01 02:20:26;;;;;;;6.57;3.47;;;12.30;99.90;;;;;;5011482;28;20180;-66
2023/09/01 02:22:53;;;;;;;10.43;3.93;;;12.30;99.90;;;;;;5011710;28;20194;-66
2023/09/01 02:25:19;;;;;;;10.83;4.10;;;12.30;99.90;;;;;;5011336;28;20821;-67
2023/09/01 02:27:45;;;;;;;8.63;3.93;;;12.30;99.90;;;;;;5010716;28;20208;-67
2023/09/01 02:30:11;;;;;;;6.60;3.73;;;12.30;99.90;;;;;;5011294;28;20589;-67
2023/09/01 02:32:38;;;;;;;7.33;3.47;;;12.30;99.90;;;;;;5011201;28;20184;-67
2023/09/01 02:35:06;;;;;;;6.87;3.77;;;12.40;99.90;;;;;;5011137;28;20307;-67
2023/09/01 02:37:35;;;;;;;7.10;3.80;;;12.40;99.90;;;;;;5010525;28;20200;-67
2023/09/01 02:40:10;;;;;;;9.27;3.50;;;12.40;99.90;;;;;;5011226;28;20267;-66
2023/09/01 02:42:39;;;;;;;7.30;4.00;;;12.40;99.90;;;;;;5011223;28;20171;-66
2023/09/01 02:45:06;;;;;;;11.73;4.43;;;12.40;99.90;;;;;;5011047;28;20189;-67
2023/09/01 02:47:33;;;;;;;8.30;4.37;;;12.40;99.90;;;;;;5009648;28;20176;-66
2023/09/01 02:49:58;;;;;;;7.57;3.97;;;12.40;99.90;;;;;;5011095;28;20603;-66
2023/09/01 02:52:24;;;;;;;8.30;3.97;;;12.40;99.90;;;;;;5011165;28;20208;-67
2023/09/01 02:54:49;;;;;;;8.93;4.63;;;12.40;99.90;;;;;;5011155;28;20204;-67
2023/09/01 02:57:15;;;;;;;11.43;3.90;;;12.40;99.90;;;;;;5010370;28;20218;-67
2023/09/01 02:59:40;;;;;;;9.00;4.27;;;12.40;99.90;;;;;;5010964;28;20263;-67
2023/09/01 03:02:06;;;;;;;9.00;3.93;;;12.40;99.90;;;;;;5011169;28;20276;-67
2023/09/01 03:04:31;;;;;;;8.80;4.20;;;12.50;99.90;;;;;;5009689;28;20203;-67
2023/09/01 03:06:57;;;;;;;9.30;4.00;;;12.50;99.90;;;;;;5012909;28;20183;-66
2023/09/01 03:09:22;;;;;;;7.63;4.20;;;12.50;99.90;;;;;;5014958;28;20634;-67
2023/09/01 03:11:49;;;;;;;9.47;4.37;;;12.50;99.90;;;;;;5015183;28;20649;-66
2023/09/01 03:14:14;;;;;;;9.27;4.80;;;12.50;99.90;;;;;;5014795;28;20239;-66
2023/09/01 03:16:42;;;;;;;12.57;4.00;;;12.50;99.90;;;;;;5013130;28;20200;-67
2023/09/01 03:19:07;;;;;;;12.50;4.30;;;12.50;99.90;;;;;;5014708;28;20734;-67
2023/09/01 03:21:33;;;;;;;8.17;4.40;;;12.50;99.90;;;;;;5015066;28;20267;-67
2023/09/01 03:23:59;;;;;;;6.87;3.83;;;12.50;99.90;;;;;;5014619;28;20204;-67
2023/09/01 03:26:24;;;;;;;8.90;4.10;;;12.50;99.90;;;;;;5014708;28;20185;-68
2023/09/01 03:28:50;;;;;;;14.07;4.30;;;12.50;99.90;;;;;;5013985;28;20261;-68
2023/09/01 03:31:16;;;;;;;6.13;3.93;;;12.50;99.90;;;;;;5014513;28;20184;-67
2023/09/01 03:33:42;;;;;;;9.07;4.40;;;12.60;99.90;;;;;;5014576;28;20200;-67
2023/09/01 03:36:08;;;;;;;8.57;4.07;;;12.50;99.90;;;;;;5014527;28;20571;-66
2023/09/01 03:38:34;;;;;;;12.10;4.13;;;12.50;99.90;;;;;;5012524;28;20315;-66
2023/09/01 03:41:07;;;;;;;7.87;4.37;;;12.50;99.90;;;;;;5012805;28;20547;-66
2023/09/01 03:43:33;;;;;;;5.40;3.07;;;12.50;99.90;;;;;;5014399;28;20193;-66
2023/09/01 03:45:59;;;;;;;9.80;3.90;;;12.50;99.90;;;;;;5014280;28;20181;-66
2023/09/01 03:48:25;;;;;;;7.50;3.93;;;12.50;99.90;;;;;;5013625;28;20191;-67
2023/09/01 03:51:11;;;;;;;7.07;3.90;;;12.50;99.90;;;;;;5014287;28;20180;-66
2023/09/01 03:53:39;;;;;;;8.33;4.40;;;12.50;99.90;;;;;;5014134;28;20275;-66
2023/09/01 03:56:17;;;;;;;11.30;4.17;;;12.50;99.90;;;;;;5014087;28;20208;-65
2023/09/01 03:58:43;;;;;;;9.30;4.00;;;12.60;99.90;;;;;;5013424;28;20634;-66
2023/09/01 04:01:09;;;;;;;7.83;3.90;;;12.60;99.90;;;;;;5013997;28;21075;-67
2023/09/01 04:03:35;;;;;;;7.97;3.93;;;12.60;99.90;;;;;;5014112;28;20215;-66
2023/09/01 04:06:02;;;;;;;9.70;4.00;;;12.60;99.90;;;;;;5013844;28;20709;-67
2023/09/01 04:08:27;;;;;;;7.43;3.83;;;12.70;99.90;;;;;;5013142;28;20181;-66
2023/09/01 04:10:53;;;;;;;8.27;4.50;;;12.70;99.90;;;;;;5013827;28;20264;-67
2023/09/01 04:13:18;;;;;;;7.80;4.50;;;12.50;99.90;;;;;;5013709;28;20223;-67
2023/09/01 04:15:44;;;;;;;6.63;3.77;;;12.50;99.90;;;;;;5013602;28;20204;-67
2023/09/01 04:18:09;;;;;;;9.87;3.97;;;12.50;99.90;;;;;;5011817;28;20534;-66
2023/09/01 04:20:35;;;;;;;10.80;4.60;;;12.60;99.90;;;;;;5013749;28;20692;-66
2023/09/01 04:23:00;;;;;;;5.37;3.87;;;12.60;99.90;;;;;;5013593;28;20702;-67
2023/09/01 04:25:26;;;;;;;6.70;4.20;;;12.60;99.90;;;;;;5013583;28;20558;-66
2023/09/01 04:27:51;;;;;;;10.27;4.70;;;12.60;99.90;;;;;;5013099;28;20669;-68
2023/09/01 04:30:17;;;;;;;8.47;4.40;;;12.60;99.90;;;;;;5013071;28;20192;-68
2023/09/01 04:32:44;;;;;;;8.83;4.40;;;12.60;99.90;;;;;;4993442;28;20243;-67
2023/09/01 04:35:10;;;;;;;7.60;4.37;;;12.60;99.90;;;;;;4994606;28;20194;-67
2023/09/01 04:37:36;;;;;;;6.83;4.07;;;12.70;99.90;;;;;;5011593;28;20303;-67
2023/09/01 04:40:06;;;;;;;7.37;4.13;;;12.70;99.90;;;;;;5013306;28;20304;-67
2023/09/01 04:42:31;;;;;;;7.43;4.27;;;12.70;99.90;;;;;;5013325;28;20177;-67
2023/09/01 04:44:57;;;;;;;7.20;4.13;;;12.70;99.90;;;;;;5012989;28;20574;-66
2023/09/01 04:47:23;;;;;;;12.90;4.93;;;12.70;99.90;;;;;;5012540;28;20192;-67
2023/09/01 04:49:49;;;;;;;7.23;4.13;;;12.70;99.90;;;;;;5013350;28;20239;-67
2023/09/01 04:52:15;;;;;;;10.90;4.47;;;12.80;99.90;;;;;;5013157;28;20212;-67
2023/09/01 04:54:41;;;;;;;10.23;5.67;;;12.80;99.90;;;;;;5012853;28;20701;-65
2023/09/01 04:57:06;;;;;;;8.43;4.47;;;12.80;99.90;;;;;;5006842;28;20213;-65
2023/09/01 04:59:32;;;;;;;8.40;4.70;;;12.80;99.90;;;;;;4993449;28;20556;-65
2023/09/01 05:02:00;;;;;;;8.00;4.30;;;12.80;99.90;;;;;;4993269;28;20211;-66
2023/09/01 05:04:26;;;;;;;10.60;4.27;;;12.80;99.90;;;;;;4993293;28;20201;-66
2023/09/01 05:06:52;;;;;;;8.03;4.10;;;12.80;99.90;;;;;;4992214;28;20211;-67
2023/09/01 05:09:18;;;;;;;9.37;4.40;;;12.80;99.90;;;;;;4991966;28;20532;-67
2023/09/01 05:11:44;;;;;;;8.57;4.33;;;12.80;99.90;;;;;;4992413;28;20193;-67
2023/09/01 05:14:10;;;;;;;9.80;4.40;;;12.80;99.90;;;;;;4992326;28;20230;-67
2023/09/01 05:16:35;;;;;;;9.07;4.50;;;12.80;99.90;;;;;;4992149;28;20209;-66
2023/09/01 05:19:01;;;;;;;8.93;5.10;;;12.90;99.90;;;;;;4991606;28;20189;-67
2023/09/01 05:21:26;;;;;;;9.40;4.53;;;12.90;99.90;;;;;;4991233;28;20205;-67
2023/09/01 05:23:52;;;;;;;11.67;5.10;;;12.90;99.90;;;;;;4992188;28;20618;-67
2023/09/01 05:26:17;;;;;;;11.27;5.07;;;13.00;99.90;;;;;;4992224;28;20184;-66
2023/09/01 05:28:43;;;;;;;8.70;4.30;;;13.00;99.90;;;;;;4991110;28;20577;-67
2023/09/01 05:31:09;;;;;;;13.03;5.80;;;13.00;99.90;;;;;;4992061;28;20177;-66
2023/09/01 05:33:34;;;;;;;10.83;4.23;;;13.00;99.90;;;;;;4990750;28;20217;-66
2023/09/01 05:36:00;;;;;;;11.17;5.13;;;13.10;99.90;;;;;;4991793;28;20228;-66
2023/09/01 05:38:25;;;;;;;14.57;5.40;;;13.10;99.90;;;;;;4991150;28;20197;-65
2023/09/01 05:40:58;;;;;;;11.03;5.10;;;13.10;99.90;;;;;;4990533;28;20190;-65
2023/09/01 05:43:24;;;;;;;11.83;5.00;;;13.20;99.90;;;;;;4991758;28;20283;-66
2023/09/01 05:45:49;;;;;;;11.30;5.27;;;13.20;99.90;;;;;;4991719;28;20243;-67
2023/09/01 05:48:15;;;;;;;12.73;5.13;;;13.20;99.90;;;;;;4991022;28;20220;-67
2023/09/01 05:50:42;;;;;;;11.80;5.30;;;13.20;99.90;;;;;;4990983;28;20177;-67
2023/09/01 05:53:08;;;;;;;7.83;4.77;;;13.30;99.90;;;;;;4989935;28;20984;-67
2023/09/01 05:55:34;;;;;;;13.57;5.10;;;13.20;99.90;;;;;;4991538;28;20181;-67
2023/09/01 05:57:59;;;;;;;8.20;4.60;;;13.30;99.90;;;;;;4990665;28;20257;-67
2023/09/01 06:00:25;;;;;;;10.07;5.30;;;13.40;99.90;;;;;;4990411;28;20178;-67
2023/09/01 06:02:52;;;;;;;10.07;5.60;;;13.40;99.90;;;;;;4991553;28;20205;-67
2023/09/01 06:05:18;;;;;;;10.30;5.07;;;13.40;99.90;;;;;;4991321;28;20679;-67
2023/09/01 06:07:43;;;;;;;10.50;4.87;;;13.40;99.90;;;;;;4990515;28;20216;-67
2023/09/01 06:10:09;;;;;;;11.07;5.43;;;13.50;99.90;;;;;;4991421;28;20185;-67
2023/09/01 06:12:35;;;;;;;8.90;5.40;;;13.60;99.90;;;;;;4991149;28;20188;-67
2023/09/01 06:15:00;;;;;;;9.90;5.47;;;13.70;99.90;;;;;;4991066;28;20675;-67
2023/09/01 06:17:26;;;;;;;16.87;7.53;;;13.70;99.90;;;;;;4990404;28;20217;-67
2023/09/01 06:19:51;;;;;;;16.77;6.73;;;13.80;99.90;;;;;;4990892;28;20188;-68
2023/09/01 06:22:17;;;;;;;14.93;6.13;;;13.80;99.90;;;;;;4990968;28;20619;-67
2023/09/01 06:24:42;;;;;;;13.87;5.40;;;13.90;99.90;;;;;;4991034;28;20213;-68
2023/09/01 06:27:08;;;;;;;15.57;5.83;;;14.00;99.90;;;;;;4990424;28;20277;-67
2023/09/01 06:29:33;;;;;;;10.67;5.27;;;14.00;99.90;;;;;;4991112;28;20189;-67
2023/09/01 06:31:59;;;;;;;13.43;5.50;;;14.10;99.90;;;;;;4989641;28;20271;-67
2023/09/01 06:34:24;;;;;;;13.10;5.20;;;14.20;99.90;;;;;;4990884;28;20213;-65
2023/09/01 06:36:50;;;;;;;10.20;5.37;;;14.20;99.90;;;;;;4990219;28;20201;-67
2023/09/01 06:39:18;;;;;;;10.93;5.27;;;14.30;99.90;;;;;;4990837;28;20185;-68
2023/09/01 06:41:45;;;;;;;16.43;5.30;;;14.40;99.90;;;;;;4990250;28;20232;-68
2023/09/01 06:44:11;;;;;;;14.63;5.70;;;14.40;99.90;;;;;;4990710;28;20236;-68
2023/09/01 06:46:37;;;;;;;15.00;5.10;;;14.50;99.90;;;;;;4990588;28;20208;-66
2023/09/01 06:49:02;;;;;;;15.57;5.80;;;14.50;99.90;;;;;;4990143;28;20185;-67
2023/09/01 06:51:29;;;;;;;13.10;6.23;;;14.50;99.90;;;;;;4990689;28;20185;-67
2023/09/01 06:53:54;;;;;;;18.13;6.20;;;14.50;99.90;;;;;;4990719;28;20781;-67
2023/09/01 06:56:20;;;;;;;15.77;6.20;;;14.60;99.90;;;;;;4990907;28;20292;-68
2023/09/01 06:58:46;;;;;;;22.33;6.50;;;14.60;99.90;;;;;;4990203;28;20181;-68
2023/09/01 07:01:12;;;;;;;18.43;6.83;;;14.60;99.90;;;;;;4988936;28;20211;-67
2023/09/01 07:03:38;;;;;;;18.83;7.53;;;14.60;99.90;;;;;;4990698;28;20267;-67
2023/09/01 07:06:04;;;;;;;18.47;6.60;;;14.60;99.90;;;;;;4990965;28;20726;-68
2023/09/01 07:08:30;;;;;;;17.30;6.33;;;14.70;99.90;;;;;;4990068;28;20272;-68
2023/09/01 07:11:03;;;;;;;21.03;6.20;;;14.70;99.90;;;;;;4990550;28;20189;-67
2023/09/01 07:13:29;;;;;;;14.90;6.30;;;14.80;99.90;;;;;;4990642;28;20244;-67
2023/09/01 07:15:55;;;;;;;14.60;6.57;;;14.90;99.90;;;;;;4990443;28;20175;-67
2023/09/01 07:18:25;;;;;;;11.20;5.83;;;14.90;99.90;;;;;;4989875;28;20677;-67
2023/09/01 07:20:51;;;;;;;14.23;6.27;;;14.90;99.90;;;;;;4990676;28;20178;-67
2023/09/01 07:23:19;;;;;;;10.27;5.80;;;15.00;99.90;;;;;;4990559;28;20186;-67
2023/09/01 07:25:44;;;;;;;13.60;5.47;;;15.10;99.90;;;;;;4990538;28;20178;-67
2023/09/01 07:28:12;;;;;;;11.50;5.47;;;15.20;99.90;;;;;;4989760;28;20185;-67
2023/09/01 07:30:38;;;;;;;12.20;5.50;;;15.10;99.90;;;;;;4990488;28;20662;-67
2023/09/01 07:33:04;;;;;;;11.33;5.00;;;15.20;99.90;;;;;;4990282;28;20182;-67
2023/09/01 07:35:29;;;;;;;13.67;5.53;;;15.30;99.90;;;;;;4990626;28;20581;-67
2023/09/01 07:37:55;;;;;;;14.07;5.20;;;15.30;99.90;;;;;;4989668;28;20211;-68
2023/09/01 07:40:21;;;;;;;14.43;5.53;;;15.30;99.90;;;;;;4990528;28;20177;-68
2023/09/01 07:42:47;;;;;;;11.50;5.40;;;15.40;99.90;;;;;;4990324;28;20181;-67
2023/09/01 07:45:13;;;;;;;13.07;5.53;;;15.50;99.90;;;;;;4990264;28;20200;-68
2023/09/01 07:47:38;;;;;;;14.13;4.70;;;15.50;99.90;;;;;;4989494;28;20185;-67
2023/09/01 07:50:05;;;;;;;18.47;6.20;;;15.60;99.90;;;;;;4990085;28;20569;-67
2023/09/01 07:52:31;;;;;;;14.17;5.37;;;15.70;99.90;;;;;;4991790;28;20277;-68
2023/09/01 07:54:56;;;;;;;15.53;6.00;;;15.70;99.90;;;;;;4993846;28;20738;-67
2023/09/01 07:57:22;;;;;;;11.33;5.10;;;15.80;99.90;;;;;;4993164;28;20261;-67
2023/09/01 07:59:47;;;;;;;13.97;5.00;;;15.70;99.90;;;;;;4993740;28;20247;-68
2023/09/01 08:02:13;;;;;;;12.20;4.70;;;15.70;99.90;;;;;;4993746;28;20186;-67
2023/09/01 08:04:38;;;;;;;8.77;4.10;;;15.70;99.90;;;;;;4993710;28;20205;-66
2023/09/01 08:07:04;;;;;;;6.47;4.03;;;15.60;99.90;;;;;;4993327;28;20197;-66
2023/09/01 08:09:30;;;;;;;8.97;3.87;;;15.60;99.90;;;;;;4993644;28;20236;-68
2023/09/01 08:11:55;;;;;;;10.17;3.67;;;15.60;99.90;;;;;;4993669;28;20189;-67
2023/09/01 08:14:21;;;;;;;12.13;4.40;;;15.60;99.90;;;;;;4993439;28;20691;-66
2023/09/01 08:16:48;;;;;;;13.77;5.20;;;15.60;99.90;;;;;;4992661;28;20204;-65
2023/09/01 08:19:13;;;;;;;8.70;5.17;;;15.60;99.90;;;;;;4993458;28;20189;-66
2023/09/01 08:21:39;;;;;;;8.63;4.40;;;15.50;99.90;;;;;;4993420;28;20169;-65
2023/09/01 08:24:05;;;;;;;10.63;4.67;;;15.40;99.90;;;;;;4993203;28;20193;-65
2023/09/01 08:26:32;;;;;;;7.70;3.70;;;15.40;99.90;;;;;;4993172;28;20177;-65
2023/09/01 08:28:58;;;;;;;6.03;3.70;;;15.40;99.90;;;;;;4992523;28;20184;-65
2023/09/01 08:31:24;;;;;;;11.83;4.40;;;15.40;99.90;;;;;;4992960;28;20889;-65
2023/09/01 08:33:49;;;;;;;8.67;5.00;;;15.60;99.90;;;;;;4993123;28;20192;-66
2023/09/01 08:36:15;;;;;;;6.43;4.07;;;15.50;99.90;;;;;;4993221;28;20208;-66
2023/09/01 08:38:40;;;;;;;21.57;10.23;;;15.50;99.90;;;;;;4991297;28;20300;-65
2023/09/01 08:41:06;;;;;;;9.67;3.70;;;15.40;99.90;;;;;;4992068;28;20185;-66
2023/09/01 08:43:40;;;;;;;4.27;3.03;;;15.60;99.90;;;;;;4991423;28;20249;-66
2023/09/01 08:46:07;;;;;;;5.80;3.17;;;15.70;99.90;;;;;;4992445;28;20172;-66
2023/09/01 08:48:33;;;;;;;14.07;3.20;;;15.90;99.90;;;;;;4992106;28;20176;-66
2023/09/01 08:51:00;;;;;;;5.83;2.80;;;16.00;99.90;;;;;;4992402;28;20208;-65
2023/09/01 08:53:25;;;;;;;3.93;2.30;;;16.00;99.90;;;;;;4992862;28;20205;-65
2023/09/01 08:55:52;;;;;;;3.37;2.50;;;16.00;99.90;;;;;;4992185;28;20646;-66
2023/09/01 08:58:18;;;;;;;5.10;2.40;;;16.00;99.90;;;;;;4991905;28;20263;-67
2023/09/01 09:00:44;;;;;;;5.80;2.43;;;16.10;99.90;;;;;;4992759;28;20177;-66
2023/09/01 09:03:13;;;;;;;3.40;2.07;;;16.00;99.90;;;;;;4992422;28;20177;-65
2023/09/01 09:05:39;;;;;;;4.23;2.20;;;16.10;99.90;;;;;;4992158;28;20181;-64
2023/09/01 09:08:08;;;;;;;4.47;1.80;;;16.10;99.90;;;;;;4992018;28;20173;-64
2023/09/01 09:10:46;;;;;;;3.33;2.07;;;16.00;99.90;;;;;;4992358;28;20173;-64
2023/09/01 09:13:26;;;;;;;5.47;2.90;;;16.00;99.90;;;;;;4992546;28;20196;-64
2023/09/01 09:16:11;;;;;;;5.07;2.40;;;16.10;99.90;;;;;;4992429;28;20217;-63
2023/09/01 09:18:41;;;;;;;3.27;1.80;;;16.20;99.90;;;;;;4992061;28;20208;-65
2023/09/01 09:21:23;;;;;;;5.97;2.03;;;16.20;99.90;;;;;;4991521;28;20255;-64
2023/09/01 09:23:49;;;;;;;3.43;1.60;;;16.10;99.90;;;;;;4992025;28;20690;-64
2023/09/01 09:26:15;;;;;;;3.90;1.90;;;16.20;99.90;;;;;;4992163;28;20188;-65
2023/09/01 09:28:40;;;;;;;4.80;1.60;;;16.20;99.90;;;;;;4991870;28;20681;-65
2023/09/01 09:31:06;;;;;;;3.67;1.30;;;16.20;99.90;;;;;;4992160;28;20184;-65
2023/09/01 09:33:33;;;;;;;3.00;1.40;;;16.20;99.90;;;;;;4991972;28;20197;-64
2023/09/01 09:36:00;;;;;;;3.43;1.73;;;16.20;99.90;;;;;;4992098;28;20181;-65
2023/09/01 09:38:49;;;;;;;3.40;1.20;;;16.30;99.90;;;;;;4991422;28;20348;-65
2023/09/01 09:41:15;;;;;;;1.40;1.10;;;16.20;99.90;;;;;;4992140;28;20176;-66
2023/09/01 09:43:50;;;;;;;3.90;1.27;;;16.20;99.90;;;;;;4991827;28;20189;-67
2023/09/01 09:46:19;;;;;;;4.87;1.43;;;16.30;99.90;;;;;;4991494;28;20674;-66
2023/09/01 09:48:45;;;;;;;4.67;1.07;;;16.30;99.90;;;;;;4991489;28;20181;-66
2023/09/01 09:51:11;;;;;;;2.37;1.00;;;16.20;99.90;;;;;;4991696;28;20230;-66
2023/09/01 09:53:39;;;;;;;1.80;0.93;;;16.30;99.90;;;;;;4991749;28;20274;-66
2023/09/01 09:56:30;;;;;;;2.57;1.00;;;16.30;99.90;;;;;;4991536;28;20173;-66
2023/09/01 09:59:01;;;;;;;2.90;0.97;;;16.30;99.90;;;;;;4991197;28;20253;-64
2023/09/01 10:01:29;;;;;;;1.00;0.60;;;16.40;99.90;;;;;;4991446;28;20193;-66
2023/09/01 10:03:56;;;;;;;1.87;1.00;;;16.50;99.90;;;;;;4991331;28;20239;-66
2023/09/01 10:06:23;;;;;;;3.17;1.20;;;16.60;99.90;;;;;;4991514;28;20255;-67
2023/09/01 10:08:51;;;;;;;3.23;0.80;;;16.80;99.90;;;;;;4990818;28;20260;-66
2023/09/01 10:11:17;;;;;;;2.60;0.90;;;16.80;99.90;;;;;;4991205;28;20273;-67
2023/09/01 10:13:47;;;;;;;1.37;0.70;;;16.90;99.90;;;;;;4991122;28;20686;-66
2023/09/01 10:16:13;;;;;;;2.03;1.00;;;17.10;99.90;;;;;;4991006;28;20569;-65
2023/09/01 10:18:45;;;;;;;3.00;0.97;;;17.20;99.90;;;;;;4989327;28;20560;-65
2023/09/01 10:21:13;;;;;;;2.17;1.10;;;17.30;99.90;;;;;;4991310;28;20193;-66
2023/09/01 10:23:38;;;;;;;1.20;0.80;;;17.20;99.90;;;;;;4991123;28;20216;-66
2023/09/01 10:26:27;;;;;;;1.67;1.10;;;17.30;99.90;;;;;;4990955;28;20730;-67
2023/09/01 10:29:04;;;;;;;2.50;1.13;;;17.50;99.90;;;;;;4989673;28;20615;-67
2023/09/01 10:31:35;;;;;;;19.37;7.63;;;17.60;99.90;;;;;;4991458;28;20178;-67
2023/09/01 10:34:04;;;;;;;13.80;5.00;;;17.70;99.90;;;;;;4991298;28;20331;-67
2023/09/01 10:36:30;;;;;;;2.97;0.97;;;17.60;99.90;;;;;;4990941;28;20208;-68
2023/09/01 10:39:22;;;;;;;1.30;0.87;;;17.70;99.90;;;;;;4990678;28;20177;-68
2023/09/01 10:41:58;;;;;;;1.57;0.70;;;17.60;99.90;;;;;;4990447;28;20189;-67
2023/09/01 10:44:44;;;;;;;1.43;0.80;;;17.50;99.90;;;;;;4990874;28;20546;-67
2023/09/01 10:47:31;;;;;;;1.40;0.73;;;17.50;99.90;;;;;;4990526;28;20555;-68
2023/09/01 10:50:02;;;;;;;3.33;1.10;;;17.50;99.90;;;;;;4990883;28;20223;-67
2023/09/01 10:52:28;;;;;;;3.03;0.70;;;17.40;99.90;;;;;;4989101;28;20177;-67
2023/09/01 10:55:00;;;;;;;1.17;0.70;;;17.50;99.90;;;;;;4990828;28;20197;-68
2023/09/01 10:57:43;;;;;;;1.10;0.60;;;17.60;99.90;;;;;;4990175;28;20201;-67
2023/09/01 11:00:28;;;;;;;0.70;0.60;;;17.80;99.90;;;;;;4990787;28;20177;-67
2023/09/01 11:03:15;;;;;;;1.20;0.80;;;17.90;99.90;;;;;;4989240;28;20184;-68
2023/09/01 11:05:41;;;;;;;1.80;0.70;;;17.90;99.90;;;;;;4990529;28;20212;-69
2023/09/01 11:08:12;;;;;;;1.80;0.63;;;18.10;99.90;;;;;;4990385;28;20201;-68
2023/09/01 11:10:38;;;;;;;2.73;0.77;;;18.00;99.90;;;;;;4991438;28;20251;-68
2023/09/01 11:13:19;;;;;;;4.03;0.80;;;17.90;99.90;;;;;;4990551;28;20192;-65
2023/09/01 11:15:46;;;;;;;2.67;0.70;;;17.80;99.90;;;;;;4990579;28;20181;-65
2023/09/01 11:18:22;;;;;;;1.27;0.73;;;17.80;99.90;;;;;;4989970;28;20650;-64
2023/09/01 11:20:49;;;;;;;4.53;1.00;;;17.90;99.90;;;;;;4990375;28;20177;-66
2023/09/01 11:23:20;;;;;;;1.87;1.00;;;17.90;99.90;;;;;;4989745;28;20173;-67
2023/09/01 11:25:47;;;;;;;2.93;0.70;;;18.10;99.90;;;;;;4990499;28;20300;-66
2023/09/01 11:28:14;;;;;;;2.37;0.70;;;18.30;99.90;;;;;;4992803;28;20645;-67
2023/09/01 11:30:55;;;;;;;5.03;0.80;;;18.40;99.90;;;;;;4994276;28;20184;-66
2023/09/01 11:33:22;;;;;;;1.27;0.60;;;18.50;99.90;;;;;;4994490;28;20177;-66
2023/09/01 11:35:47;;;;;;;1.87;0.80;;;18.60;99.90;;;;;;4994302;28;20208;-66
2023/09/01 11:38:20;;;;;;;3.83;1.07;;;18.60;99.90;;;;;;4993675;28;20233;-67
2023/09/01 11:40:47;;;;;;;2.30;0.53;;;18.60;99.90;;;;;;4994105;28;20181;-65
2023/09/01 11:43:13;;;;;;;2.27;0.67;;;18.60;99.90;;;;;;4994008;28;20699;-66
2023/09/01 11:45:49;;;;;;;5.40;0.90;;;18.60;99.90;;;;;;4993930;28;20256;-66
2023/09/01 11:48:24;;;;;;;1.53;0.80;;;18.50;99.90;;;;;;4993419;28;20180;-67
2023/09/01 11:50:53;;;;;;;2.57;1.50;;;18.50;99.90;;;;;;4994284;28;20184;-65
2023/09/01 11:53:30;;;;;;;4.50;0.73;;;18.40;99.90;;;;;;4993885;28;20285;-65
2023/09/01 11:55:58;;;;;;;2.27;0.80;;;18.30;99.90;;;;;;4994162;28;20197;-65
2023/09/01 11:58:33;;;;;;;4.53;1.43;;;18.30;99.90;;;;;;4993308;28;20180;-65
2023/09/01 12:01:18;;;;;;;3.33;1.40;;;18.30;99.90;;;;;;4992633;28;20183;-65
2023/09/01 12:03:45;;;;;;;3.83;0.80;;;18.30;99.90;;;;;;4993918;28;20558;-65
2023/09/01 12:06:24;;;;;;;1.20;0.90;;;18.30;99.90;;;;;;4993949;28;20173;-67
2023/09/01 12:08:52;;;;;;;4.70;1.37;;;18.30;99.90;;;;;;4991943;28;20173;-66
2023/09/01 12:11:19;;;;;;;1.27;1.00;;;18.40;99.90;;;;;;4992280;28;20506;-67
2023/09/01 12:13:44;;;;;;;4.67;1.30;;;18.40;99.90;;;;;;4992124;28;20201;-67
2023/09/01 12:16:24;;;;;;;1.30;0.90;;;18.50;99.90;;;;;;4992184;28;20173;-67
2023/09/01 12:18:51;;;;;;;1.47;0.90;;;18.50;99.90;;;;;;4992967;28;20196;-67
2023/09/01 12:21:16;;;;;;;2.03;1.03;;;18.60;99.90;;;;;;4992974;28;20184;-67
2023/09/01 12:23:44;;;;;;;3.83;1.13;;;18.60;99.90;;;;;;4992973;28;20193;-67
2023/09/01 12:26:11;;;;;;;3.77;1.27;;;18.70;99.90;;;;;;4993426;28;20710;-67
2023/09/01 12:28:39;;;;;;;1.60;1.10;;;18.80;99.90;;;;;;4992886;28;20177;-68
2023/09/01 12:31:06;;;;;;;0.97;0.70;;;18.80;99.90;;;;;;4993371;28;20173;-68
2023/09/01 12:33:32;;;;;;;3.00;1.30;;;18.60;99.90;;;;;;4993555;28;20232;-68
2023/09/01 12:35:58;;;;;;;6.73;0.70;;;18.70;99.90;;;;;;4993696;28;20201;-66
2023/09/01 12:38:24;;;;;;;1.23;0.80;;;18.50;99.90;;;;;;4992312;28;20177;-66
2023/09/01 12:40:50;;;;;;;1.13;0.83;;;18.50;99.90;;;;;;4993523;28;20204;-67
2023/09/01 12:43:16;;;;;;;4.20;0.93;;;18.40;99.90;;;;;;4993039;28;20631;-66
2023/09/01 12:45:42;;;;;;;1.73;1.00;;;18.40;99.90;;;;;;4993774;28;20211;-66